createdAt,value
2018-09-04T00:00:00.159Z,101261.64
2018-09-04T00:01:05.981Z,101264.05
2018-09-04T00:02:11.473Z,101261.05
2018-09-04T00:03:16.966Z,101259.36
2018-09-04T00:04:22.888Z,101259.00
2018-09-04T00:05:28.396Z,101264.13
2018-09-04T00:06:33.827Z,101261.61
2018-09-04T00:07:39.293Z,101263.94
2018-09-04T00:08:45.010Z,101258.73
2018-09-04T00:09:50.952Z,101260.14
2018-09-04T00:10:56.481Z,101262.99
2018-09-04T00:12:01.913Z,101262.16
2018-09-04T00:13:07.344Z,101264.92
2018-09-04T00:14:12.785Z,101261.10
2018-09-04T00:15:18.309Z,101260.23
2018-09-04T00:16:24.098Z,101260.63
2018-09-04T00:17:29.635Z,101264.10
2018-09-04T00:18:35.105Z,101260.44
2018-09-04T00:19:40.745Z,101262.84
2018-09-04T00:20:46.271Z,101257.35
2018-09-04T00:21:51.742Z,101256.60
2018-09-04T00:22:57.258Z,101257.91
2018-09-04T00:24:02.925Z,101253.87
2018-09-04T00:25:08.465Z,101256.33
2018-09-04T00:26:14.046Z,101254.66
2018-09-04T00:27:19.503Z,101251.12
2018-09-04T00:28:24.960Z,101250.55
2018-09-04T00:29:30.485Z,101255.29
2018-09-04T00:30:35.884Z,101250.24
2018-09-04T00:31:41.591Z,101252.02
2018-09-04T00:32:47.078Z,101249.28
2018-09-04T00:33:52.555Z,101249.20
2018-09-04T00:34:58.038Z,101246.30
2018-09-04T00:36:03.510Z,101246.48
2018-09-04T00:37:09.098Z,101248.53
2018-09-04T00:38:14.601Z,101245.06
2018-09-04T00:39:20.002Z,101248.14
2018-09-04T00:40:25.425Z,101247.16
2018-09-04T00:41:30.888Z,101245.75
2018-09-04T00:42:36.473Z,101238.96
2018-09-04T00:43:41.877Z,101242.39
2018-09-04T00:44:47.337Z,101246.84
2018-09-04T00:45:53.388Z,101245.93
2018-09-04T00:46:59.253Z,101248.53
2018-09-04T00:48:04.679Z,101250.90
2018-09-04T00:49:10.230Z,101242.34
2018-09-04T00:50:15.689Z,101247.18
2018-09-04T00:51:21.159Z,101243.20
2018-09-04T00:52:26.640Z,101242.88
2018-09-04T00:53:32.136Z,101241.89
2018-09-04T00:54:37.589Z,101239.30
2018-09-04T00:55:43.064Z,101238.30
2018-09-04T00:56:48.638Z,101247.41
2018-09-04T00:57:54.136Z,101240.36
2018-09-04T00:58:59.916Z,101245.05
2018-09-04T01:00:06.128Z,101243.42
2018-09-04T01:01:11.600Z,101252.39
2018-09-04T01:02:17.050Z,101250.70
2018-09-04T01:03:22.533Z,101252.55
2018-09-04T01:04:28.357Z,101250.05
2018-09-04T01:05:33.892Z,101252.66
2018-09-04T01:06:39.410Z,101254.58
2018-09-04T01:07:44.886Z,101257.69
2018-09-04T01:08:50.368Z,101266.42
2018-09-04T01:09:55.825Z,101267.66
2018-09-04T01:11:01.430Z,101268.95
2018-09-04T01:12:07.118Z,101265.48
2018-09-04T01:13:12.591Z,101271.63
2018-09-04T01:14:18.104Z,101265.59
2018-09-04T01:15:23.532Z,101259.25
2018-09-04T01:16:29.018Z,101261.30
2018-09-04T01:17:34.482Z,101254.52
2018-09-04T01:18:39.920Z,101259.45
2018-09-04T01:19:45.897Z,101260.21
2018-09-04T01:20:51.341Z,101255.88
2018-09-04T01:21:56.832Z,101258.48
2018-09-04T01:23:02.347Z,101250.20
2018-09-04T01:24:07.788Z,101256.31
2018-09-04T01:25:13.300Z,101253.97
2018-09-04T01:26:18.800Z,101256.64
2018-09-04T01:27:24.352Z,101260.15
2018-09-04T01:28:29.793Z,101254.59
2018-09-04T01:29:35.273Z,101253.52
2018-09-04T01:30:40.873Z,101257.81
2018-09-04T01:31:46.412Z,101258.17
2018-09-04T01:32:52.162Z,101257.19
2018-09-04T01:33:58.435Z,101254.20
2018-09-04T01:35:03.921Z,101253.73
2018-09-04T01:36:09.340Z,101256.44
2018-09-04T01:37:14.817Z,101255.64
2018-09-04T01:38:20.434Z,101249.77
2018-09-04T01:39:25.985Z,101254.94
2018-09-04T01:40:31.625Z,101252.62
2018-09-04T01:41:37.088Z,101251.18
2018-09-04T01:42:42.574Z,101249.95
2018-09-04T01:43:48.090Z,101253.64
2018-09-04T01:44:53.573Z,101247.83
2018-09-04T01:45:59.027Z,101249.56
2018-09-04T01:47:04.608Z,101249.88
2018-09-04T01:48:10.037Z,101247.28
2018-09-04T01:49:15.480Z,101248.11
2018-09-04T01:50:21.045Z,101248.04
2018-09-04T01:51:26.655Z,101245.73
2018-09-04T01:52:32.149Z,101247.42
2018-09-04T01:53:37.752Z,101247.50
2018-09-04T01:54:43.225Z,101257.97
2018-09-04T01:55:48.837Z,101251.47
2018-09-04T01:56:54.400Z,101253.16
2018-09-04T01:58:00.065Z,101248.04
2018-09-04T01:59:05.771Z,101251.94
2018-09-04T02:00:12.045Z,101254.46
2018-09-04T02:01:17.736Z,101258.36
2018-09-04T02:02:23.236Z,101254.39
2018-09-04T02:03:28.668Z,101251.11
2018-09-04T02:04:34.093Z,101243.52
2018-09-04T02:05:40.014Z,101243.81
2018-09-04T02:06:45.498Z,101240.53
2018-09-04T02:07:50.897Z,101243.99
2018-09-04T02:08:56.373Z,101235.80
2018-09-04T02:10:01.865Z,101237.57
2018-09-04T02:11:07.542Z,101236.27
2018-09-04T02:12:12.991Z,101234.50
2018-09-04T02:13:18.600Z,101228.94
2018-09-04T02:14:24.411Z,101230.31
2018-09-04T02:15:30.063Z,101232.38
2018-09-04T02:16:35.600Z,101236.56
2018-09-04T02:17:41.173Z,101229.98
2018-09-04T02:18:46.589Z,101233.41
2018-09-04T02:19:51.988Z,101236.02
2018-09-04T02:20:57.441Z,101234.42
2018-09-04T02:22:02.912Z,101232.38
2018-09-04T02:23:08.373Z,101235.25
2018-09-04T02:24:13.841Z,101236.41
2018-09-04T02:25:19.308Z,101235.66
2018-09-04T02:26:24.884Z,101238.17
2018-09-04T02:27:30.408Z,101235.94
2018-09-04T02:28:35.816Z,101235.25
2018-09-04T02:29:41.341Z,101234.17
2018-09-04T02:30:46.848Z,101234.28
2018-09-04T02:31:52.308Z,101230.81
2018-09-04T02:32:57.832Z,101233.11
2018-09-04T02:34:03.293Z,101235.09
2018-09-04T02:35:08.745Z,101239.14
2018-09-04T02:36:14.287Z,101230.95
2018-09-04T02:37:19.659Z,101228.45
2018-09-04T02:38:25.163Z,101226.14
2018-09-04T02:39:30.729Z,101228.20
2018-09-04T02:40:36.367Z,101229.03
2018-09-04T02:41:42.033Z,101226.54
2018-09-04T02:42:47.505Z,101223.70
2018-09-04T02:43:53.118Z,101226.84
2018-09-04T02:44:58.578Z,101226.16
2018-09-04T02:46:04.277Z,101226.28
2018-09-04T02:47:09.813Z,101225.34
2018-09-04T02:48:15.252Z,101223.58
2018-09-04T02:49:20.721Z,101225.55
2018-09-04T02:50:26.250Z,101227.64
2018-09-04T02:51:31.686Z,101230.53
2018-09-04T02:52:37.097Z,101225.69
2018-09-04T02:53:42.697Z,101228.69
2018-09-04T02:54:48.144Z,101227.31
2018-09-04T02:55:53.642Z,101225.86
2018-09-04T02:56:59.069Z,101229.66
2018-09-04T02:58:04.512Z,101229.44
2018-09-04T02:59:10.073Z,101230.74
2018-09-04T03:00:15.544Z,101230.27
2018-09-04T03:01:20.970Z,101223.02
2018-09-04T03:02:26.852Z,101226.99
2018-09-04T03:03:32.352Z,101229.37
2018-09-04T03:04:37.837Z,101228.22
2018-09-04T03:05:44.206Z,101225.69
2018-09-04T03:06:49.720Z,101228.08
2018-09-04T03:07:55.698Z,101229.38
2018-09-04T03:09:01.164Z,101229.16
2018-09-04T03:10:08.076Z,101233.06
2018-09-04T03:11:13.532Z,101228.08
2018-09-04T03:12:18.941Z,101227.87
2018-09-04T03:13:24.437Z,101227.47
2018-09-04T03:14:29.893Z,101227.87
2018-09-04T03:15:35.438Z,101230.17
2018-09-04T03:16:41.013Z,101228.48
2018-09-04T03:17:46.613Z,101231.08
2018-09-04T03:18:52.260Z,101232.09
2018-09-04T03:19:57.714Z,101230.00
2018-09-04T03:21:03.289Z,101228.34
2018-09-04T03:22:08.860Z,101226.28
2018-09-04T03:23:15.045Z,101217.88
2018-09-04T03:24:20.490Z,101220.48
2018-09-04T03:25:26.013Z,101220.34
2018-09-04T03:26:31.453Z,101217.42
2018-09-04T03:27:36.884Z,101220.02
2018-09-04T03:28:42.456Z,101219.25
2018-09-04T03:29:48.062Z,101215.44
2018-09-04T03:30:53.996Z,101222.25
2018-09-04T03:31:59.372Z,101216.51
2018-09-04T03:33:04.809Z,101218.79
2018-09-04T03:34:10.277Z,101214.53
2018-09-04T03:35:15.745Z,101215.58
2018-09-04T03:36:21.343Z,101217.81
2018-09-04T03:37:27.161Z,101215.83
2018-09-04T03:38:32.840Z,101219.11
2018-09-04T03:39:38.365Z,101217.89
2018-09-04T03:40:43.882Z,101214.58
2018-09-04T03:41:49.475Z,101215.73
2018-09-04T03:42:54.958Z,101219.26
2018-09-04T03:44:00.577Z,101217.49
2018-09-04T03:45:06.582Z,101214.90
2018-09-04T03:46:12.181Z,101217.34
2018-09-04T03:47:17.633Z,101215.36
2018-09-04T03:48:23.127Z,101211.06
2018-09-04T03:49:28.682Z,101212.91
2018-09-04T03:50:34.177Z,101209.55
2018-09-04T03:51:39.739Z,101216.66
2018-09-04T03:52:45.249Z,101211.76
2018-09-04T03:53:50.688Z,101210.31
2018-09-04T03:54:56.130Z,101209.95
2018-09-04T03:56:01.626Z,101206.95
2018-09-04T03:57:07.040Z,101209.95
2018-09-04T03:58:12.528Z,101203.82
2018-09-04T03:59:18.042Z,101205.73
2018-09-04T04:00:23.602Z,101206.34
2018-09-04T04:01:29.204Z,101202.91
2018-09-04T04:02:34.655Z,101210.16
2018-09-04T04:03:40.103Z,101206.94
2018-09-04T04:04:45.580Z,101212.67
2018-09-04T04:05:51.197Z,101214.52
2018-09-04T04:06:56.626Z,101217.25
2018-09-04T04:08:02.041Z,101212.52
2018-09-04T04:09:10.649Z,101216.34
2018-09-04T04:10:16.077Z,101218.61
2018-09-04T04:11:21.545Z,101219.98
2018-09-04T04:12:27.094Z,101222.35
2018-09-04T04:13:32.534Z,101220.07
2018-09-04T04:14:37.985Z,101221.36
2018-09-04T04:15:43.647Z,101223.73
2018-09-04T04:16:49.100Z,101219.84
2018-09-04T04:17:54.559Z,101223.27
2018-09-04T04:19:00.065Z,101227.16
2018-09-04T04:20:05.699Z,101223.41
2018-09-04T04:21:11.256Z,101224.77
2018-09-04T04:22:16.698Z,101218.91
2018-09-04T04:23:22.314Z,101220.90
2018-09-04T04:24:27.760Z,101215.23
2018-09-04T04:25:33.265Z,101216.47
2018-09-04T04:26:38.957Z,101213.72
2018-09-04T04:27:44.494Z,101215.34
2018-09-04T04:28:50.032Z,101216.09
2018-09-04T04:29:55.518Z,101217.92
2018-09-04T04:31:01.012Z,101219.75
2018-09-04T04:32:06.678Z,101217.36
2018-09-04T04:33:12.230Z,101218.73
2018-09-04T04:34:17.836Z,101219.80
2018-09-04T04:35:23.360Z,101216.44
2018-09-04T04:36:29.185Z,101220.80
2018-09-04T04:37:34.844Z,101225.52
2018-09-04T04:38:40.369Z,101218.70
2018-09-04T04:39:45.802Z,101217.88
2018-09-04T04:40:51.269Z,101225.88
2018-09-04T04:41:56.952Z,101222.52
2018-09-04T04:43:02.417Z,101230.77
2018-09-04T04:44:08.145Z,101228.94
2018-09-04T04:45:13.689Z,101232.47
2018-09-04T04:46:19.149Z,101227.78
2018-09-04T04:47:29.710Z,101233.97
2018-09-04T04:48:35.203Z,101232.97
2018-09-04T04:49:40.690Z,101233.97
2018-09-04T04:50:46.145Z,101233.73
2018-09-04T04:51:51.593Z,101232.44
2018-09-04T04:52:57.044Z,101233.34
2018-09-04T04:54:02.517Z,101235.30
2018-09-04T04:55:08.061Z,101233.23
2018-09-04T04:56:13.492Z,101230.98
2018-09-04T04:57:18.959Z,101233.47
2018-09-04T04:58:24.452Z,101233.57
2018-09-04T04:59:29.972Z,101234.34
2018-09-04T05:00:35.404Z,101239.95
2018-09-04T05:01:40.922Z,101235.77
2018-09-04T05:02:46.501Z,101238.46
2018-09-04T05:03:51.971Z,101244.24
2018-09-04T05:04:57.610Z,101241.92
2018-09-04T05:06:03.249Z,101243.72
2018-09-04T05:07:08.719Z,101249.30
2018-09-04T05:08:14.620Z,101250.42
2018-09-04T05:09:20.301Z,101249.27
2018-09-04T05:10:25.796Z,101249.42
2018-09-04T05:11:31.289Z,101246.13
2018-09-04T05:12:36.907Z,101249.92
2018-09-04T05:13:42.455Z,101248.79
2018-09-04T05:14:47.949Z,101242.61
2018-09-04T05:15:53.420Z,101245.44
2018-09-04T05:16:58.961Z,101243.44
2018-09-04T05:18:04.418Z,101241.77
2018-09-04T05:19:10.169Z,101240.48
2018-09-04T05:20:19.249Z,101241.25
2018-09-04T05:21:24.710Z,101240.41
2018-09-04T05:22:30.242Z,101242.84
2018-09-04T05:23:35.689Z,101244.61
2018-09-04T05:24:41.205Z,101246.67
2018-09-04T05:25:46.641Z,101244.77
2018-09-04T05:26:52.389Z,101250.13
2018-09-04T05:27:57.854Z,101249.43
2018-09-04T05:29:03.341Z,101250.30
2018-09-04T05:30:08.908Z,101251.33
2018-09-04T05:31:14.586Z,101250.80
2018-09-04T05:33:29.191Z,101252.42
2018-09-04T05:34:34.754Z,101253.72
2018-09-04T05:35:43.755Z,101255.72
2018-09-04T05:36:49.225Z,101260.74
2018-09-04T05:37:54.904Z,101259.91
2018-09-04T05:39:00.358Z,101264.03
2018-09-04T05:40:06.317Z,101260.08
2018-09-04T05:41:11.725Z,101266.86
2018-09-04T05:42:22.276Z,101265.56
2018-09-04T05:43:32.275Z,101259.94
2018-09-04T05:44:37.809Z,101268.42
2018-09-04T05:45:43.329Z,101265.30
2018-09-04T05:46:51.210Z,101270.55
2018-09-04T05:48:05.160Z,101274.97
2018-09-04T05:49:11.121Z,101277.23
2018-09-04T05:50:16.705Z,101278.10
2018-09-04T05:51:22.277Z,101276.97
2018-09-04T05:52:27.776Z,101274.14
2018-09-04T05:53:33.362Z,101271.81
2018-09-04T05:54:39.065Z,101271.97
2018-09-04T05:55:44.561Z,101276.70
2018-09-04T05:56:49.980Z,101265.85
2018-09-04T05:57:55.594Z,101274.56
2018-09-04T05:59:01.090Z,101270.20
2018-09-04T06:00:10.629Z,101271.28
2018-09-04T06:01:16.134Z,101273.04
2018-09-04T06:02:22.116Z,101278.13
2018-09-04T06:03:27.706Z,101281.66
2018-09-04T06:04:33.281Z,101279.83
2018-09-04T06:05:38.829Z,101286.52
2018-09-04T06:06:44.296Z,101272.94
2018-09-04T06:07:49.814Z,101278.06
2018-09-04T06:08:55.421Z,101281.35
2018-09-04T06:10:00.861Z,101283.19
2018-09-04T06:11:06.339Z,101278.63
2018-09-04T06:12:11.904Z,101281.15
2018-09-04T06:13:17.353Z,101284.04
2018-09-04T06:14:22.750Z,101284.44
2018-09-04T06:15:28.312Z,101280.70
2018-09-04T06:16:33.749Z,101281.86
2018-09-04T06:17:39.405Z,101280.86
2018-09-04T06:18:44.848Z,101283.45
2018-09-04T06:19:50.268Z,101271.78
2018-09-04T06:20:55.714Z,101275.67
2018-09-04T06:22:01.190Z,101279.42
2018-09-04T06:23:07.234Z,101274.58
2018-09-04T06:24:12.644Z,101274.44
2018-09-04T06:25:18.125Z,101280.39
2018-09-04T06:26:23.604Z,101276.97
2018-09-04T06:27:29.127Z,101274.53
2018-09-04T06:28:34.533Z,101279.95
2018-09-04T06:29:40.178Z,101278.51
2018-09-04T06:30:45.468Z,101278.37
2018-09-04T06:31:50.876Z,101286.45
2018-09-04T06:32:56.265Z,101281.80
2018-09-04T06:34:01.867Z,101281.59
2018-09-04T06:35:07.661Z,101283.29
2018-09-04T06:36:13.396Z,101284.13
2018-09-04T06:37:18.938Z,101284.81
2018-09-04T06:38:24.376Z,101284.74
2018-09-04T06:39:29.901Z,101287.02
2018-09-04T06:40:35.380Z,101285.21
2018-09-04T06:41:40.944Z,101288.10
2018-09-04T06:42:46.502Z,101284.13
2018-09-04T06:43:51.881Z,101291.78
2018-09-04T06:44:57.421Z,101281.97
2018-09-04T06:46:03.082Z,101290.92
2018-09-04T06:47:08.469Z,101287.70
2018-09-04T06:48:13.969Z,101289.22
2018-09-04T06:49:19.372Z,101289.16
2018-09-04T06:50:24.786Z,101284.35
2018-09-04T06:51:30.194Z,101293.12
2018-09-04T06:52:35.886Z,101294.34
2018-09-04T06:53:41.337Z,101289.36
2018-09-04T06:54:46.918Z,101296.62
2018-09-04T06:55:52.356Z,101292.17
2018-09-04T06:56:58.015Z,101293.79
2018-09-04T06:58:03.465Z,101291.94
2018-09-04T06:59:09.022Z,101289.01
2018-09-04T07:00:15.072Z,101295.28
2018-09-04T07:01:20.667Z,101293.61
2018-09-04T07:02:26.171Z,101296.41
2018-09-04T07:03:31.596Z,101298.39
2018-09-04T07:04:37.068Z,101299.47
2018-09-04T07:05:42.562Z,101303.97
2018-09-04T07:06:48.252Z,101299.80
2018-09-04T07:07:53.688Z,101301.86
2018-09-04T07:08:59.338Z,101306.83
2018-09-04T07:10:04.996Z,101305.73
2018-09-04T07:11:10.416Z,101302.22
2018-09-04T07:12:15.870Z,101302.06
2018-09-04T07:13:21.293Z,101302.63
2018-09-04T07:14:26.693Z,101307.59
2018-09-04T07:15:32.200Z,101305.59
2018-09-04T07:16:37.625Z,101305.71
2018-09-04T07:17:43.091Z,101308.91
2018-09-04T07:18:48.652Z,101309.66
2018-09-04T07:19:54.169Z,101306.42
2018-09-04T07:20:59.695Z,101311.36
2018-09-04T07:22:05.271Z,101305.80
2018-09-04T07:23:10.678Z,101309.42
2018-09-04T07:24:16.767Z,101306.06
2018-09-04T07:25:22.406Z,101305.42
2018-09-04T07:26:27.872Z,101304.59
2018-09-04T07:27:33.352Z,101309.37
2018-09-04T07:28:38.737Z,101308.34
2018-09-04T07:29:44.132Z,101311.53
2018-09-04T07:30:49.847Z,101306.80
2018-09-04T07:31:55.259Z,101313.34
2018-09-04T07:33:00.812Z,101311.95
2018-09-04T07:34:06.664Z,101316.52
2018-09-04T07:35:12.154Z,101317.38
2018-09-04T07:36:17.585Z,101319.27
2018-09-04T07:37:22.993Z,101323.37
2018-09-04T07:38:28.465Z,101319.01
2018-09-04T07:39:33.908Z,101325.94
2018-09-04T07:40:39.531Z,101329.20
2018-09-04T07:41:45.052Z,101329.56
2018-09-04T07:42:50.500Z,101333.05
2018-09-04T07:43:56.253Z,101328.94
2018-09-04T07:45:02.156Z,101327.55
2018-09-04T07:46:07.643Z,101327.97
2018-09-04T07:47:13.081Z,101325.16
2018-09-04T07:48:18.536Z,101322.94
2018-09-04T07:49:23.996Z,101322.95
2018-09-04T07:50:29.538Z,101333.48
2018-09-04T07:51:35.124Z,101327.53
2018-09-04T07:52:40.475Z,101326.05
2018-09-04T07:53:45.998Z,101324.27
2018-09-04T07:54:51.509Z,101323.06
2018-09-04T07:55:57.217Z,101327.06
2018-09-04T07:57:02.652Z,101323.79
2018-09-04T07:58:08.073Z,101329.48
2018-09-04T07:59:13.602Z,101327.53
2018-09-04T08:00:19.097Z,101331.27
2018-09-04T08:01:24.563Z,101325.02
2018-09-04T08:02:30.118Z,101325.41
2018-09-04T08:03:35.552Z,101327.55
2018-09-04T08:04:41.031Z,101323.55
2018-09-04T08:05:46.516Z,101323.42
2018-09-04T08:06:51.913Z,101321.86
2018-09-04T08:07:57.509Z,101332.56
2018-09-04T08:09:03.035Z,101323.80
2018-09-04T08:10:08.582Z,101326.98
2018-09-04T08:11:14.142Z,101320.36
2018-09-04T08:12:19.645Z,101323.83
2018-09-04T08:13:25.212Z,101323.08
2018-09-04T08:14:30.939Z,101332.12
2018-09-04T08:15:36.952Z,101327.33
2018-09-04T08:16:42.469Z,101329.09
2018-09-04T08:17:48.138Z,101329.73
2018-09-04T08:18:53.626Z,101324.33
2018-09-04T08:19:59.110Z,101325.16
2018-09-04T08:21:04.838Z,101320.59
2018-09-04T08:22:11.019Z,101331.03
2018-09-04T08:23:16.499Z,101327.58
2018-09-04T08:24:21.921Z,101329.24
2018-09-04T08:25:27.896Z,101333.97
2018-09-04T08:26:33.327Z,101329.77
2018-09-04T08:27:38.805Z,101329.49
2018-09-04T08:28:44.221Z,101329.36
2018-09-04T08:29:49.776Z,101331.05
2018-09-04T08:30:55.176Z,101333.73
2018-09-04T08:32:00.762Z,101329.81
2018-09-04T08:33:06.297Z,101327.75
2018-09-04T08:34:11.677Z,101327.38
2018-09-04T08:35:17.217Z,101328.94
2018-09-04T08:36:22.738Z,101331.05
2018-09-04T08:37:28.157Z,101332.80
2018-09-04T08:38:37.637Z,101327.72
2018-09-04T08:39:43.092Z,101330.30
2018-09-04T08:40:48.526Z,101329.14
2018-09-04T08:41:54.039Z,101330.83
2018-09-04T08:42:59.642Z,101332.01
2018-09-04T08:44:05.280Z,101331.28
2018-09-04T08:45:10.717Z,101333.55
2018-09-04T08:46:16.506Z,101337.82
2018-09-04T08:47:22.403Z,101330.70
2018-09-04T08:48:27.905Z,101336.70
2018-09-04T08:49:33.619Z,101331.77
2018-09-04T08:50:39.087Z,101333.36
2018-09-04T08:51:44.486Z,101334.83
2018-09-04T08:52:49.936Z,101334.98
2018-09-04T08:53:55.377Z,101329.93
2018-09-04T08:55:00.973Z,101335.70
2018-09-04T08:56:06.741Z,101336.22
2018-09-04T08:57:12.219Z,101338.89
2018-09-04T08:58:17.730Z,101336.70
2018-09-04T08:59:23.173Z,101337.28
2018-09-04T09:00:28.709Z,101341.60
2018-09-04T09:01:34.208Z,101341.05
2018-09-04T09:02:39.628Z,101339.75
2018-09-04T09:03:45.145Z,101339.99
2018-09-04T09:04:50.547Z,101340.97
2018-09-04T09:05:55.941Z,101338.73
2018-09-04T09:07:01.631Z,101331.45
2018-09-04T09:08:07.274Z,101330.62
2018-09-04T09:09:13.190Z,101331.35
2018-09-04T09:10:18.775Z,101336.01
2018-09-04T09:11:24.160Z,101335.37
2018-09-04T09:12:29.760Z,101333.27
2018-09-04T09:13:35.181Z,101326.24
2018-09-04T09:14:40.715Z,101328.42
2018-09-04T09:15:46.286Z,101336.21
2018-09-04T09:16:51.779Z,101332.63
2018-09-04T09:17:57.457Z,101331.34
2018-09-04T09:19:02.896Z,101329.73
2018-09-04T09:20:08.473Z,101329.75
2018-09-04T09:21:13.870Z,101324.72
2018-09-04T09:22:19.429Z,101335.17
2018-09-04T09:23:24.880Z,101334.31
2018-09-04T09:24:30.358Z,101331.34
2018-09-04T09:25:36.212Z,101335.20
2018-09-04T09:26:41.766Z,101336.45
2018-09-04T09:27:47.316Z,101335.13
2018-09-04T09:28:52.905Z,101341.23
2018-09-04T09:29:58.409Z,101334.37
2018-09-04T09:31:03.957Z,101338.81
2018-09-04T09:32:09.437Z,101337.42
2018-09-04T09:33:14.892Z,101333.94
2018-09-04T09:34:20.346Z,101338.25
2018-09-04T09:35:25.772Z,101337.47
2018-09-04T09:36:31.393Z,101340.83
2018-09-04T09:37:36.807Z,101337.33
2018-09-04T09:38:42.266Z,101336.98
2018-09-04T09:39:47.789Z,101342.97
2018-09-04T09:40:53.349Z,101337.73
2018-09-04T09:41:58.849Z,101335.11
2018-09-04T09:43:04.413Z,101340.97
2018-09-04T09:44:09.962Z,101332.02
2018-09-04T09:45:15.408Z,101331.64
2018-09-04T09:46:20.897Z,101326.44
2018-09-04T09:47:26.338Z,101330.98
2018-09-04T09:48:38.049Z,101331.92
2018-09-04T09:49:43.658Z,101332.41
2018-09-04T09:50:49.231Z,101329.06
2018-09-04T09:51:54.769Z,101329.80
2018-09-04T09:53:00.230Z,101334.34
2018-09-04T09:54:05.732Z,101331.25
2018-09-04T09:55:11.519Z,101331.37
2018-09-04T09:56:17.012Z,101337.22
2018-09-04T09:57:22.719Z,101331.05
2018-09-04T09:58:28.234Z,101330.83
2018-09-04T09:59:34.718Z,101331.55
2018-09-04T10:00:45.277Z,101335.04
2018-09-04T10:01:53.573Z,101337.33
2018-09-04T10:03:04.241Z,101327.80
2018-09-04T10:04:10.093Z,101330.88
2018-09-04T10:05:15.557Z,101330.28
2018-09-04T10:06:21.792Z,101327.20
2018-09-04T10:07:27.297Z,101321.20
2018-09-04T10:08:32.895Z,101331.36
2018-09-04T10:09:38.558Z,101325.09
2018-09-04T10:10:44.015Z,101323.78
2018-09-04T10:11:49.480Z,101326.98
2018-09-04T10:12:55.210Z,101326.61
2018-09-04T10:14:00.709Z,101323.39
2018-09-04T10:15:06.595Z,101330.23
2018-09-04T10:16:12.045Z,101324.00
2018-09-04T10:17:17.506Z,101329.95
2018-09-04T10:18:23.052Z,101325.08
2018-09-04T10:19:28.533Z,101327.83
2018-09-04T10:20:34.090Z,101324.50
2018-09-04T10:21:39.605Z,101319.13
2018-09-04T10:22:45.441Z,101316.77
2018-09-04T10:23:50.913Z,101320.45
2018-09-04T10:24:56.819Z,101318.84
2018-09-04T10:26:02.452Z,101320.75
2018-09-04T10:27:08.200Z,101320.38
2018-09-04T10:28:13.702Z,101318.13
2018-09-04T10:29:19.333Z,101319.06
2018-09-04T10:30:24.772Z,101322.30
2018-09-04T10:31:30.352Z,101324.36
2018-09-04T10:32:35.985Z,101326.13
2018-09-04T10:33:41.545Z,101329.95
2018-09-04T10:34:47.040Z,101329.00
2018-09-04T10:35:52.558Z,101323.61
2018-09-04T10:36:58.121Z,101320.42
2018-09-04T10:38:03.719Z,101321.97
2018-09-04T10:39:14.640Z,101320.15
2018-09-04T10:40:25.365Z,101314.67
2018-09-04T10:41:30.893Z,101320.53
2018-09-04T10:42:36.495Z,101319.70
2018-09-04T10:43:42.188Z,101315.39
2018-09-04T10:44:47.966Z,101312.78
2018-09-04T10:45:58.596Z,101317.33
2018-09-04T10:47:04.165Z,101310.86
2018-09-04T10:48:20.642Z,101312.75
2018-09-04T10:49:26.085Z,101306.67
2018-09-04T10:50:31.733Z,101304.05
2018-09-04T10:51:37.209Z,101304.17
2018-09-04T10:52:42.929Z,101306.09
2018-09-04T10:53:48.578Z,101306.20
2018-09-04T10:54:54.373Z,101301.17
2018-09-04T10:56:00.117Z,101307.58
2018-09-04T10:57:05.845Z,101310.69
2018-09-04T10:58:11.472Z,101310.94
2018-09-04T10:59:16.949Z,101309.60
2018-09-04T11:00:22.414Z,101303.73
2018-09-04T11:01:28.267Z,101304.69
2018-09-04T11:02:33.766Z,101307.42
2018-09-04T11:03:39.805Z,101310.03
2018-09-04T11:04:45.403Z,101307.50
2018-09-04T11:05:50.997Z,101310.82
2018-09-04T11:06:56.539Z,101306.45
2018-09-04T11:08:01.980Z,101306.75
2018-09-04T11:09:10.673Z,101302.03
2018-09-04T11:10:16.293Z,101307.14
2018-09-04T11:11:21.849Z,101305.20
2018-09-04T11:12:27.459Z,101305.78
2018-09-04T11:13:32.970Z,101306.35
2018-09-04T11:14:38.424Z,101308.70
2018-09-04T11:15:44.112Z,101315.11
2018-09-04T11:16:49.581Z,101310.25
2018-09-04T11:17:55.000Z,101311.88
2018-09-04T11:19:00.899Z,101309.91
2018-09-04T11:20:06.461Z,101308.63
2018-09-04T11:21:11.928Z,101311.53
2018-09-04T11:22:17.400Z,101305.28
2018-09-04T11:23:22.944Z,101304.45
2018-09-04T11:24:28.377Z,101311.66
2018-09-04T11:25:33.843Z,101310.16
2018-09-04T11:26:39.378Z,101303.58
2018-09-04T11:27:44.798Z,101302.93
2018-09-04T11:28:55.448Z,101300.47
2018-09-04T11:30:01.029Z,101305.91
2018-09-04T11:31:06.665Z,101302.09
2018-09-04T11:32:12.171Z,101303.56
2018-09-04T11:33:17.585Z,101299.23
2018-09-04T11:34:22.972Z,101303.23
2018-09-04T11:35:28.409Z,101295.92
2018-09-04T11:36:33.906Z,101302.67
2018-09-04T11:37:39.496Z,101297.49
2018-09-04T11:38:44.965Z,101297.11
2018-09-04T11:39:50.506Z,101296.61
2018-09-04T11:40:56.025Z,101299.85
2018-09-04T11:42:01.557Z,101299.59
2018-09-04T11:43:07.645Z,101298.50
2018-09-04T11:44:13.085Z,101295.27
2018-09-04T11:45:18.837Z,101298.52
2018-09-04T11:46:24.317Z,101301.80
2018-09-04T11:47:30.269Z,101297.14
2018-09-04T11:48:39.329Z,101297.84
2018-09-04T11:49:45.256Z,101301.39
2018-09-04T11:50:51.015Z,101297.27
2018-09-04T11:51:56.594Z,101300.63
2018-09-04T11:53:02.114Z,101293.67
2018-09-04T11:54:07.946Z,101300.28
2018-09-04T11:55:13.538Z,101295.75
2018-09-04T11:56:20.520Z,101294.10
2018-09-04T11:57:26.106Z,101290.45
2018-09-04T11:58:32.625Z,101295.31
2018-09-04T11:59:38.306Z,101295.91
2018-09-04T12:00:45.957Z,101293.25
2018-09-04T12:01:55.475Z,101294.91
2018-09-04T12:03:01.065Z,101294.93
2018-09-04T12:04:06.844Z,101292.67
2018-09-04T12:05:12.565Z,101294.36
2018-09-04T12:06:18.105Z,101294.37
2018-09-04T12:07:23.674Z,101293.38
2018-09-04T12:08:29.261Z,101297.48
2018-09-04T12:09:34.780Z,101293.16
2018-09-04T12:10:40.903Z,101301.58
2018-09-04T12:11:53.498Z,101296.38
2018-09-04T12:12:59.264Z,101292.72
2018-09-04T12:14:04.912Z,101294.77
2018-09-04T12:15:10.418Z,101297.42
2018-09-04T12:16:16.058Z,101294.70
2018-09-04T12:17:21.744Z,101293.84
2018-09-04T12:18:28.493Z,101296.05
2018-09-04T12:19:49.226Z,101298.23
2018-09-04T12:20:56.698Z,101297.82
2018-09-04T12:22:02.202Z,101293.44
2018-09-04T12:23:07.965Z,101292.20
2018-09-04T12:24:13.515Z,101290.84
2018-09-04T12:25:19.192Z,101298.88
2018-09-04T12:26:24.779Z,101300.12
2018-09-04T12:27:30.576Z,101295.73
2018-09-04T12:28:36.122Z,101291.16
2018-09-04T12:29:41.816Z,101288.73
2018-09-04T12:30:47.297Z,101285.28